sensor_id;sensor_type;location;lat;lon;timestamp;temperature;humidity
64951;DHT22;51482;47.014;7.652;2023-04-05T00:01:29;1.10;99.90
64951;DHT22;51482;47.014;7.652;2023-04-05T00:03:56;1.10;99.90
64951;DHT22;51482;47.014;7.652;2023-04-05T00:06:26;1.00;99.90
64951;DHT22;51482;47.014;7.652;2023-04-05T00:08:57;1.30;99.90
64951;DHT22;51482;47.014;7.652;2023-04-05T00:11:24;1.10;99.90
64951;DHT22;51482;47.014;7.652;2023-04-05T00:13:50;0.60;99.90
64951;DHT22;51482;47.014;7.652;2023-04-05T00:16:16;1.50;99.90
64951;DHT22;51482;47.014;7.652;2023-04-05T00:18:42;1.40;99.90
64951;DHT22;51482;47.014;7.652;2023-04-05T00:21:17;1.60;99.90
64951;DHT22;51482;47.014;7.652;2023-04-05T00:23:42;1.00;99.90
64951;DHT22;51482;47.014;7.652;2023-04-05T00:26:10;1.00;99.90
64951;DHT22;51482;47.014;7.652;2023-04-05T00:28:36;1.60;99.90
64951;DHT22;51482;47.014;7.652;2023-04-05T00:31:03;1.70;99.90
64951;DHT22;51482;47.014;7.652;2023-04-05T00:33:29;1.70;99.90
64951;DHT22;51482;47.014;7.652;2023-04-05T00:35:55;1.60;99.90
64951;DHT22;51482;47.014;7.652;2023-04-05T00:38:20;0.90;99.90
64951;DHT22;51482;47.014;7.652;2023-04-05T00:40:46;1.40;99.90
64951;DHT22;51482;47.014;7.652;2023-04-05T00:43:11;1.40;99.90
64951;DHT22;51482;47.014;7.652;2023-04-05T00:45:37;1.30;99.90
64951;DHT22;51482;47.014;7.652;2023-04-05T00:48:03;1.30;99.90
64951;DHT22;51482;47.014;7.652;2023-04-05T00:50:29;1.30;99.90
64951;DHT22;51482;47.014;7.652;2023-04-05T00:52:56;1.40;99.90
64951;DHT22;51482;47.014;7.652;2023-04-05T00:55:23;1.50;99.90
64951;DHT22;51482;47.014;7.652;2023-04-05T00:57:49;1.30;99.90
64951;DHT22;51482;47.014;7.652;2023-04-05T01:00:15;0.90;99.90
64951;DHT22;51482;47.014;7.652;2023-04-05T01:02:47;0.90;99.90
64951;DHT22;51482;47.014;7.652;2023-04-05T01:05:45;1.20;99.90
64951;DHT22;51482;47.014;7.652;2023-04-05T01:08:20;1.40;99.90
64951;DHT22;51482;47.014;7.652;2023-04-05T01:10:50;1.40;99.90
64951;DHT22;51482;47.014;7.652;2023-04-05T01:13:18;1.00;99.90
64951;DHT22;51482;47.014;7.652;2023-04-05T01:15:43;1.10;99.90
64951;DHT22;51482;47.014;7.652;2023-04-05T01:18:09;1.10;99.90
64951;DHT22;51482;47.014;7.652;2023-04-05T01:20:48;1.20;99.90
64951;DHT22;51482;47.014;7.652;2023-04-05T01:23:37;1.10;99.90
64951;DHT22;51482;47.014;7.652;2023-04-05T01:28:58;1.20;99.90
64951;DHT22;51482;47.014;7.652;2023-04-05T01:31:50;0.70;99.90
64951;DHT22;51482;47.014;7.652;2023-04-05T01:34:46;0.70;99.90
64951;DHT22;51482;47.014;7.652;2023-04-05T01:37:18;1.00;99.90
64951;DHT22;51482;47.014;7.652;2023-04-05T01:39:44;1.30;99.90
64951;DHT22;51482;47.014;7.652;2023-04-05T01:42:12;1.30;99.90
64951;DHT22;51482;47.014;7.652;2023-04-05T01:44:38;1.30;99.90
64951;DHT22;51482;47.014;7.652;2023-04-05T01:47:03;1.20;99.90
64951;DHT22;51482;47.014;7.652;2023-04-05T01:49:29;0.40;99.90
64951;DHT22;51482;47.014;7.652;2023-04-05T01:51:55;1.10;99.90
64951;DHT22;51482;47.014;7.652;2023-04-05T01:54:20;0.90;99.90
64951;DHT22;51482;47.014;7.652;2023-04-05T01:56:46;0.50;99.90
64951;DHT22;51482;47.014;7.652;2023-04-05T01:59:11;0.80;99.90
64951;DHT22;51482;47.014;7.652;2023-04-05T02:01:37;0.80;99.90
64951;DHT22;51482;47.014;7.652;2023-04-05T02:04:02;0.90;99.90
64951;DHT22;51482;47.014;7.652;2023-04-05T02:06:28;0.60;99.90
64951;DHT22;51482;47.014;7.652;2023-04-05T02:08:53;0.90;99.90
64951;DHT22;51482;47.014;7.652;2023-04-05T02:11:19;0.90;99.90
64951;DHT22;51482;47.014;7.652;2023-04-05T02:13:45;0.50;99.90
64951;DHT22;51482;47.014;7.652;2023-04-05T02:16:11;0.90;99.90
64951;DHT22;51482;47.014;7.652;2023-04-05T02:18:36;0.30;99.90
64951;DHT22;51482;47.014;7.652;2023-04-05T02:21:07;-0.20;99.90
64951;DHT22;51482;47.014;7.652;2023-04-05T02:23:36;1.10;99.90
64951;DHT22;51482;47.014;7.652;2023-04-05T02:26:02;0.90;99.90
64951;DHT22;51482;47.014;7.652;2023-04-05T02:28:28;0.70;99.90
64951;DHT22;51482;47.014;7.652;2023-04-05T02:30:53;0.90;99.90
64951;DHT22;51482;47.014;7.652;2023-04-05T02:33:19;1.00;99.90
64951;DHT22;51482;47.014;7.652;2023-04-05T02:35:48;1.10;99.90
64951;DHT22;51482;47.014;7.652;2023-04-05T02:38:14;1.10;99.90
64951;DHT22;51482;47.014;7.652;2023-04-05T02:40:39;0.40;99.90
64951;DHT22;51482;47.014;7.652;2023-04-05T02:43:06;0.50;99.90
64951;DHT22;51482;47.014;7.652;2023-04-05T02:45:31;1.00;99.90
64951;DHT22;51482;47.014;7.652;2023-04-05T02:47:57;1.10;99.90
64951;DHT22;51482;47.014;7.652;2023-04-05T02:50:22;0.80;99.90
64951;DHT22;51482;47.014;7.652;2023-04-05T02:52:52;0.80;99.90
64951;DHT22;51482;47.014;7.652;2023-04-05T02:55:18;0.70;99.90
64951;DHT22;51482;47.014;7.652;2023-04-05T02:57:44;0.80;99.90
64951;DHT22;51482;47.014;7.652;2023-04-05T03:00:10;0.80;99.90
64951;DHT22;51482;47.014;7.652;2023-04-05T03:02:37;0.00;99.90
64951;DHT22;51482;47.014;7.652;2023-04-05T03:05:04;0.50;99.90
64951;DHT22;51482;47.014;7.652;2023-04-05T03:07:29;0.20;99.90
64951;DHT22;51482;47.014;7.652;2023-04-05T03:09:57;0.20;99.90
64951;DHT22;51482;47.014;7.652;2023-04-05T03:12:22;0.70;99.90
64951;DHT22;51482;47.014;7.652;2023-04-05T03:14:48;0.20;99.90
64951;DHT22;51482;47.014;7.652;2023-04-05T03:17:13;0.70;99.90
64951;DHT22;51482;47.014;7.652;2023-04-05T03:19:39;0.80;99.90
64951;DHT22;51482;47.014;7.652;2023-04-05T03:22:04;0.70;99.90
64951;DHT22;51482;47.014;7.652;2023-04-05T03:24:31;0.80;99.90
64951;DHT22;51482;47.014;7.652;2023-04-05T03:27:00;0.80;99.90
64951;DHT22;51482;47.014;7.652;2023-04-05T03:29:26;0.80;99.90
64951;DHT22;51482;47.014;7.652;2023-04-05T03:31:52;0.70;99.90
64951;DHT22;51482;47.014;7.652;2023-04-05T03:34:17;0.70;99.90
64951;DHT22;51482;47.014;7.652;2023-04-05T03:36:43;0.20;99.90
64951;DHT22;51482;47.014;7.652;2023-04-05T03:39:12;0.00;99.90
64951;DHT22;51482;47.014;7.652;2023-04-05T03:41:38;0.20;99.90
64951;DHT22;51482;47.014;7.652;2023-04-05T03:44:04;0.20;99.90
64951;DHT22;51482;47.014;7.652;2023-04-05T03:46:30;0.70;99.90
64951;DHT22;51482;47.014;7.652;2023-04-05T03:48:57;0.00;99.90
64951;DHT22;51482;47.014;7.652;2023-04-05T03:51:23;0.70;99.90
64951;DHT22;51482;47.014;7.652;2023-04-05T03:53:49;0.60;99.90
64951;DHT22;51482;47.014;7.652;2023-04-05T03:56:15;0.40;99.90
64951;DHT22;51482;47.014;7.652;2023-04-05T03:58:41;0.50;99.90
64951;DHT22;51482;47.014;7.652;2023-04-05T04:01:06;0.60;99.90
64951;DHT22;51482;47.014;7.652;2023-04-05T04:03:33;0.60;99.90
64951;DHT22;51482;47.014;7.652;2023-04-05T04:05:58;0.70;99.90
64951;DHT22;51482;47.014;7.652;2023-04-05T04:08:24;0.60;99.90
64951;DHT22;51482;47.014;7.652;2023-04-05T04:10:50;0.70;99.90
64951;DHT22;51482;47.014;7.652;2023-04-05T04:13:16;0.10;99.90
64951;DHT22;51482;47.014;7.652;2023-04-05T04:15:44;0.60;99.90
64951;DHT22;51482;47.014;7.652;2023-04-05T04:18:09;0.50;99.90
64951;DHT22;51482;47.014;7.652;2023-04-05T04:20:35;0.30;99.90
64951;DHT22;51482;47.014;7.652;2023-04-05T04:23:00;-0.50;99.90
64951;DHT22;51482;47.014;7.652;2023-04-05T04:25:26;0.30;99.90
64951;DHT22;51482;47.014;7.652;2023-04-05T04:27:55;0.50;99.90
64951;DHT22;51482;47.014;7.652;2023-04-05T04:30:21;0.40;99.90
64951;DHT22;51482;47.014;7.652;2023-04-05T04:32:47;0.20;99.90
64951;DHT22;51482;47.014;7.652;2023-04-05T04:35:27;0.40;99.90
64951;DHT22;51482;47.014;7.652;2023-04-05T04:37:57;-0.60;99.90
64951;DHT22;51482;47.014;7.652;2023-04-05T04:40:31;0.60;99.90
64951;DHT22;51482;47.014;7.652;2023-04-05T04:43:09;-0.30;99.90
64951;DHT22;51482;47.014;7.652;2023-04-05T04:45:39;-0.20;99.90
64951;DHT22;51482;47.014;7.652;2023-04-05T04:48:05;0.00;99.90
64951;DHT22;51482;47.014;7.652;2023-04-05T04:50:32;0.70;99.90
64951;DHT22;51482;47.014;7.652;2023-04-05T04:52:58;-0.10;99.90
64951;DHT22;51482;47.014;7.652;2023-04-05T04:55:24;0.50;99.90
64951;DHT22;51482;47.014;7.652;2023-04-05T04:57:54;0.30;99.90
64951;DHT22;51482;47.014;7.652;2023-04-05T05:00:21;0.30;99.90
64951;DHT22;51482;47.014;7.652;2023-04-05T05:02:48;-0.30;99.90
64951;DHT22;51482;47.014;7.652;2023-04-05T05:05:15;0.20;99.90
64951;DHT22;51482;47.014;7.652;2023-04-05T05:07:40;-0.50;99.90
64951;DHT22;51482;47.014;7.652;2023-04-05T05:10:07;-0.10;99.90
64951;DHT22;51482;47.014;7.652;2023-04-05T05:12:33;-0.70;99.90
64951;DHT22;51482;47.014;7.652;2023-04-05T05:14:59;0.20;99.90
64951;DHT22;51482;47.014;7.652;2023-04-05T05:17:24;-0.20;99.90
64951;DHT22;51482;47.014;7.652;2023-04-05T05:19:50;-0.20;99.90
64951;DHT22;51482;47.014;7.652;2023-04-05T05:22:16;-0.70;99.90
64951;DHT22;51482;47.014;7.652;2023-04-05T05:24:43;-0.20;99.90
64951;DHT22;51482;47.014;7.652;2023-04-05T05:27:09;-1.40;99.90
64951;DHT22;51482;47.014;7.652;2023-04-05T05:29:34;-0.30;99.90
64951;DHT22;51482;47.014;7.652;2023-04-05T05:32:00;-1.20;99.90
64951;DHT22;51482;47.014;7.652;2023-04-05T05:34:25;-0.20;99.90
64951;DHT22;51482;47.014;7.652;2023-04-05T05:36:51;-0.30;99.90
64951;DHT22;51482;47.014;7.652;2023-04-05T05:39:17;-0.40;99.90
64951;DHT22;51482;47.014;7.652;2023-04-05T05:41:44;-0.80;99.90
64951;DHT22;51482;47.014;7.652;2023-04-05T05:44:10;-0.60;99.90
64951;DHT22;51482;47.014;7.652;2023-04-05T05:46:35;-0.60;99.90
64951;DHT22;51482;47.014;7.652;2023-04-05T05:49:01;-0.70;99.90
64951;DHT22;51482;47.014;7.652;2023-04-05T05:51:27;0.00;99.90
64951;DHT22;51482;47.014;7.652;2023-04-05T05:53:52;0.10;99.90
64951;DHT22;51482;47.014;7.652;2023-04-05T05:56:18;0.10;99.90
64951;DHT22;51482;47.014;7.652;2023-04-05T05:58:43;0.10;99.90
64951;DHT22;51482;47.014;7.652;2023-04-05T06:01:09;-0.10;99.90
64951;DHT22;51482;47.014;7.652;2023-04-05T06:03:36;-0.50;99.90
64951;DHT22;51482;47.014;7.652;2023-04-05T06:06:02;0.00;99.90
64951;DHT22;51482;47.014;7.652;2023-04-05T06:08:30;-0.60;99.90
64951;DHT22;51482;47.014;7.652;2023-04-05T06:10:56;-0.70;99.90
64951;DHT22;51482;47.014;7.652;2023-04-05T06:13:22;-0.40;99.90
64951;DHT22;51482;47.014;7.652;2023-04-05T06:15:48;0.00;99.90
64951;DHT22;51482;47.014;7.652;2023-04-05T06:18:14;0.30;99.90
64951;DHT22;51482;47.014;7.652;2023-04-05T06:20:41;-0.50;99.90
64951;DHT22;51482;47.014;7.652;2023-04-05T06:23:09;0.20;99.90
64951;DHT22;51482;47.014;7.652;2023-04-05T06:25:35;0.10;99.90
64951;DHT22;51482;47.014;7.652;2023-04-05T06:28:04;-0.10;99.90
64951;DHT22;51482;47.014;7.652;2023-04-05T06:30:31;0.20;99.90
64951;DHT22;51482;47.014;7.652;2023-04-05T06:32:58;0.20;99.90
64951;DHT22;51482;47.014;7.652;2023-04-05T06:35:23;0.20;99.90
64951;DHT22;51482;47.014;7.652;2023-04-05T06:37:50;0.40;99.90
64951;DHT22;51482;47.014;7.652;2023-04-05T06:40:16;-0.10;99.90
64951;DHT22;51482;47.014;7.652;2023-04-05T06:42:42;0.40;99.90
64951;DHT22;51482;47.014;7.652;2023-04-05T06:45:08;0.40;99.90
64951;DHT22;51482;47.014;7.652;2023-04-05T06:47:38;1.00;99.90
64951;DHT22;51482;47.014;7.652;2023-04-05T06:50:05;0.90;99.90
64951;DHT22;51482;47.014;7.652;2023-04-05T06:52:32;0.90;99.90
64951;DHT22;51482;47.014;7.652;2023-04-05T06:54:58;1.30;99.90
64951;DHT22;51482;47.014;7.652;2023-04-05T06:57:23;1.40;99.90
64951;DHT22;51482;47.014;7.652;2023-04-05T06:59:50;1.30;99.90
64951;DHT22;51482;47.014;7.652;2023-04-05T07:02:16;1.50;99.90
64951;DHT22;51482;47.014;7.652;2023-04-05T07:04:41;1.80;99.90
64951;DHT22;51482;47.014;7.652;2023-04-05T07:07:07;1.80;99.90
64951;DHT22;51482;47.014;7.652;2023-04-05T07:09:33;1.90;99.90
64951;DHT22;51482;47.014;7.652;2023-04-05T07:12:01;1.40;99.90
64951;DHT22;51482;47.014;7.652;2023-04-05T07:14:29;2.10;99.90
64951;DHT22;51482;47.014;7.652;2023-04-05T07:16:54;2.20;99.90
64951;DHT22;51482;47.014;7.652;2023-04-05T07:19:20;2.40;99.90
64951;DHT22;51482;47.014;7.652;2023-04-05T07:21:46;2.50;99.90
64951;DHT22;51482;47.014;7.652;2023-04-05T07:24:11;2.70;99.90
64951;DHT22;51482;47.014;7.652;2023-04-05T07:26:37;2.30;99.90
64951;DHT22;51482;47.014;7.652;2023-04-05T07:29:03;3.20;99.90
64951;DHT22;51482;47.014;7.652;2023-04-05T07:31:29;3.50;99.90
64951;DHT22;51482;47.014;7.652;2023-04-05T07:33:55;3.10;99.90
64951;DHT22;51482;47.014;7.652;2023-04-05T07:36:22;3.60;99.90
64951;DHT22;51482;47.014;7.652;2023-04-05T07:38:48;3.60;99.90
64951;DHT22;51482;47.014;7.652;2023-04-05T07:41:13;3.70;99.90
64951;DHT22;51482;47.014;7.652;2023-04-05T07:43:41;3.80;99.90
64951;DHT22;51482;47.014;7.652;2023-04-05T07:46:06;4.40;99.90
64951;DHT22;51482;47.014;7.652;2023-04-05T07:48:32;4.70;99.90
64951;DHT22;51482;47.014;7.652;2023-04-05T07:51:08;4.90;99.90
64951;DHT22;51482;47.014;7.652;2023-04-05T07:53:35;5.20;99.90
64951;DHT22;51482;47.014;7.652;2023-04-05T07:56:10;4.80;99.90
64951;DHT22;51482;47.014;7.652;2023-04-05T07:58:37;5.10;99.90
64951;DHT22;51482;47.014;7.652;2023-04-05T08:01:06;5.90;99.90
64951;DHT22;51482;47.014;7.652;2023-04-05T08:03:32;6.20;99.90
64951;DHT22;51482;47.014;7.652;2023-04-05T08:08:54;6.20;99.90
64951;DHT22;51482;47.014;7.652;2023-04-05T08:11:20;7.10;99.90
64951;DHT22;51482;47.014;7.652;2023-04-05T08:13:46;7.40;99.90
64951;DHT22;51482;47.014;7.652;2023-04-05T08:16:11;7.60;99.90
64951;DHT22;51482;47.014;7.652;2023-04-05T08:18:37;7.80;99.90
64951;DHT22;51482;47.014;7.652;2023-04-05T08:21:03;8.00;99.90
64951;DHT22;51482;47.014;7.652;2023-04-05T08:23:29;8.20;99.90
64951;DHT22;51482;47.014;7.652;2023-04-05T08:25:56;8.20;99.00
64951;DHT22;51482;47.014;7.652;2023-04-05T08:28:21;8.40;99.90
64951;DHT22;51482;47.014;7.652;2023-04-05T08:30:47;8.70;98.50
64951;DHT22;51482;47.014;7.652;2023-04-05T08:33:13;8.80;97.60
64951;DHT22;51482;47.014;7.652;2023-04-05T08:35:39;8.70;97.50
64951;DHT22;51482;47.014;7.652;2023-04-05T08:38:07;8.90;97.30
64951;DHT22;51482;47.014;7.652;2023-04-05T08:40:44;9.10;94.80
64951;DHT22;51482;47.014;7.652;2023-04-05T08:45:45;9.80;90.90
64951;DHT22;51482;47.014;7.652;2023-04-05T08:48:11;10.20;91.00
64951;DHT22;51482;47.014;7.652;2023-04-05T08:50:37;9.80;90.00
64951;DHT22;51482;47.014;7.652;2023-04-05T08:53:02;10.60;90.10
64951;DHT22;51482;47.014;7.652;2023-04-05T08:55:28;10.70;89.80
64951;DHT22;51482;47.014;7.652;2023-04-05T08:57:55;10.80;88.00
64951;DHT22;51482;47.014;7.652;2023-04-05T09:00:24;11.20;88.00
64951;DHT22;51482;47.014;7.652;2023-04-05T09:02:53;11.20;85.60
64951;DHT22;51482;47.014;7.652;2023-04-05T09:05:22;11.00;81.70
64951;DHT22;51482;47.014;7.652;2023-04-05T09:07:49;11.00;83.20
64951;DHT22;51482;47.014;7.652;2023-04-05T09:10:17;10.90;77.70
64951;DHT22;51482;47.014;7.652;2023-04-05T09:12:44;11.20;80.60
64951;DHT22;51482;47.014;7.652;2023-04-05T09:15:10;10.90;76.30
64951;DHT22;51482;47.014;7.652;2023-04-05T09:17:38;11.80;78.90
64951;DHT22;51482;47.014;7.652;2023-04-05T09:20:06;11.50;75.70
64951;DHT22;51482;47.014;7.652;2023-04-05T09:22:42;11.60;72.50
64951;DHT22;51482;47.014;7.652;2023-04-05T09:25:08;12.50;74.20
64951;DHT22;51482;47.014;7.652;2023-04-05T09:27:33;12.10;72.70
64951;DHT22;51482;47.014;7.652;2023-04-05T09:29:59;12.20;68.70
64951;DHT22;51482;47.014;7.652;2023-04-05T09:32:25;12.30;67.60
64951;DHT22;51482;47.014;7.652;2023-04-05T09:34:52;12.50;65.10
64951;DHT22;51482;47.014;7.652;2023-04-05T09:37:19;12.80;67.40
64951;DHT22;51482;47.014;7.652;2023-04-05T09:39:49;13.20;64.90
64951;DHT22;51482;47.014;7.652;2023-04-05T09:42:17;13.20;63.90
64951;DHT22;51482;47.014;7.652;2023-04-05T09:44:56;13.30;62.60
64951;DHT22;51482;47.014;7.652;2023-04-05T09:47:24;13.70;60.70
64951;DHT22;51482;47.014;7.652;2023-04-05T09:49:50;13.70;60.70
64951;DHT22;51482;47.014;7.652;2023-04-05T09:54:47;13.70;58.30
64951;DHT22;51482;47.014;7.652;2023-04-05T09:57:14;13.60;55.50
64951;DHT22;51482;47.014;7.652;2023-04-05T09:59:40;14.20;59.00
64951;DHT22;51482;47.014;7.652;2023-04-05T10:02:06;14.30;59.00
64951;DHT22;51482;47.014;7.652;2023-04-05T10:04:42;14.50;57.90
64951;DHT22;51482;47.014;7.652;2023-04-05T10:07:10;14.50;54.20
64951;DHT22;51482;47.014;7.652;2023-04-05T10:09:39;14.70;54.30
64951;DHT22;51482;47.014;7.652;2023-04-05T10:12:07;14.90;57.50
64951;DHT22;51482;47.014;7.652;2023-04-05T10:14:36;15.30;54.70
64951;DHT22;51482;47.014;7.652;2023-04-05T10:17:27;15.40;53.60
64951;DHT22;51482;47.014;7.652;2023-04-05T10:20:20;15.50;51.40
64951;DHT22;51482;47.014;7.652;2023-04-05T10:28:36;15.80;50.00
64951;DHT22;51482;47.014;7.652;2023-04-05T10:31:11;16.30;49.10
64951;DHT22;51482;47.014;7.652;2023-04-05T10:33:45;16.30;50.50
64951;DHT22;51482;47.014;7.652;2023-04-05T10:39:03;16.40;47.00
64951;DHT22;51482;47.014;7.652;2023-04-05T10:41:49;16.60;47.00
64951;DHT22;51482;47.014;7.652;2023-04-05T10:44:16;17.20;46.20
64951;DHT22;51482;47.014;7.652;2023-04-05T10:46:44;16.00;46.10
64951;DHT22;51482;47.014;7.652;2023-04-05T10:51:54;17.20;45.20
64951;DHT22;51482;47.014;7.652;2023-04-05T10:54:21;17.50;48.20
64951;DHT22;51482;47.014;7.652;2023-04-05T10:56:47;17.10;46.90
64951;DHT22;51482;47.014;7.652;2023-04-05T10:59:14;17.40;45.90
64951;DHT22;51482;47.014;7.652;2023-04-05T11:01:40;17.30;43.80
64951;DHT22;51482;47.014;7.652;2023-04-05T11:04:12;17.70;44.80
64951;DHT22;51482;47.014;7.652;2023-04-05T11:06:38;17.20;45.90
64951;DHT22;51482;47.014;7.652;2023-04-05T11:11:44;18.00;46.00
64951;DHT22;51482;47.014;7.652;2023-04-05T11:14:24;18.40;45.90
64951;DHT22;51482;47.014;7.652;2023-04-05T11:16:54;18.20;41.70
64951;DHT22;51482;47.014;7.652;2023-04-05T11:22:12;18.40;43.20
64951;DHT22;51482;47.014;7.652;2023-04-05T11:27:25;18.70;41.80
64951;DHT22;51482;47.014;7.652;2023-04-05T11:29:54;18.50;43.00
64951;DHT22;51482;47.014;7.652;2023-04-05T11:32:21;18.80;44.60
64951;DHT22;51482;47.014;7.652;2023-04-05T11:35:04;18.60;40.60
64951;DHT22;51482;47.014;7.652;2023-04-05T11:38:06;18.70;40.90
64951;DHT22;51482;47.014;7.652;2023-04-05T11:40:36;19.00;42.20
64951;DHT22;51482;47.014;7.652;2023-04-05T11:43:09;19.10;41.60
64951;DHT22;51482;47.014;7.652;2023-04-05T11:45:37;19.80;42.40
64951;DHT22;51482;47.014;7.652;2023-04-05T11:48:07;19.50;42.20
64951;DHT22;51482;47.014;7.652;2023-04-05T11:50:34;18.90;42.50
64951;DHT22;51482;47.014;7.652;2023-04-05T11:53:16;18.30;41.20
64951;DHT22;51482;47.014;7.652;2023-04-05T11:55:44;18.90;41.30
64951;DHT22;51482;47.014;7.652;2023-04-05T11:58:15;19.10;39.10
64951;DHT22;51482;47.014;7.652;2023-04-05T12:00:42;18.60;40.40
64951;DHT22;51482;47.014;7.652;2023-04-05T12:03:15;18.70;41.60
64951;DHT22;51482;47.014;7.652;2023-04-05T12:05:45;19.30;40.50
64951;DHT22;51482;47.014;7.652;2023-04-05T12:08:11;19.70;40.40
64951;DHT22;51482;47.014;7.652;2023-04-05T12:10:36;19.10;38.40
64951;DHT22;51482;47.014;7.652;2023-04-05T12:13:02;19.70;39.50
64951;DHT22;51482;47.014;7.652;2023-04-05T12:15:27;19.90;39.60
64951;DHT22;51482;47.014;7.652;2023-04-05T12:17:53;19.30;39.80
64951;DHT22;51482;47.014;7.652;2023-04-05T12:20:23;19.30;38.10
64951;DHT22;51482;47.014;7.652;2023-04-05T12:22:53;19.30;37.50
64951;DHT22;51482;47.014;7.652;2023-04-05T12:25:20;19.60;39.40
64951;DHT22;51482;47.014;7.652;2023-04-05T12:27:46;19.60;39.30
64951;DHT22;51482;47.014;7.652;2023-04-05T12:30:13;19.90;38.60
64951;DHT22;51482;47.014;7.652;2023-04-05T12:35:19;19.70;36.80
64951;DHT22;51482;47.014;7.652;2023-04-05T12:37:46;19.60;38.50
64951;DHT22;51482;47.014;7.652;2023-04-05T12:40:12;20.00;39.50
64951;DHT22;51482;47.014;7.652;2023-04-05T12:42:39;20.30;37.60
64951;DHT22;51482;47.014;7.652;2023-04-05T12:45:08;20.40;36.60
64951;DHT22;51482;47.014;7.652;2023-04-05T12:47:34;19.90;37.90
64951;DHT22;51482;47.014;7.652;2023-04-05T12:50:14;20.50;38.80
64951;DHT22;51482;47.014;7.652;2023-04-05T12:52:55;19.80;35.70
64951;DHT22;51482;47.014;7.652;2023-04-05T12:55:20;19.90;37.90
64951;DHT22;51482;47.014;7.652;2023-04-05T12:57:57;19.80;36.60
64951;DHT22;51482;47.014;7.652;2023-04-05T13:00:24;20.40;37.40
64951;DHT22;51482;47.014;7.652;2023-04-05T13:02:52;19.80;35.50
64951;DHT22;51482;47.014;7.652;2023-04-05T13:05:23;19.30;36.30
64951;DHT22;51482;47.014;7.652;2023-04-05T13:07:49;19.60;37.90
64951;DHT22;51482;47.014;7.652;2023-04-05T13:10:16;19.90;36.30
64951;DHT22;51482;47.014;7.652;2023-04-05T13:12:42;19.70;35.10
64951;DHT22;51482;47.014;7.652;2023-04-05T13:15:08;20.10;35.00
64951;DHT22;51482;47.014;7.652;2023-04-05T13:17:34;20.00;36.30
64951;DHT22;51482;47.014;7.652;2023-04-05T13:19:59;20.40;36.00
64951;DHT22;51482;47.014;7.652;2023-04-05T13:22:25;20.40;35.30
64951;DHT22;51482;47.014;7.652;2023-04-05T13:24:51;21.00;41.50
64951;DHT22;51482;47.014;7.652;2023-04-05T13:27:19;20.50;36.30
64951;DHT22;51482;47.014;7.652;2023-04-05T13:29:46;21.10;40.20
64951;DHT22;51482;47.014;7.652;2023-04-05T13:32:12;20.90;37.60
64951;DHT22;51482;47.014;7.652;2023-04-05T13:34:37;21.10;37.00
64951;DHT22;51482;47.014;7.652;2023-04-05T13:37:03;20.90;36.60
64951;DHT22;51482;47.014;7.652;2023-04-05T13:39:30;20.70;39.50
64951;DHT22;51482;47.014;7.652;2023-04-05T13:41:56;21.80;38.40
64951;DHT22;51482;47.014;7.652;2023-04-05T13:44:22;21.70;37.10
64951;DHT22;51482;47.014;7.652;2023-04-05T13:46:48;21.90;37.70
64951;DHT22;51482;47.014;7.652;2023-04-05T13:49:14;21.90;36.50
64951;DHT22;51482;47.014;7.652;2023-04-05T13:51:39;21.50;38.60
64951;DHT22;51482;47.014;7.652;2023-04-05T13:54:08;21.70;37.60
64951;DHT22;51482;47.014;7.652;2023-04-05T13:56:36;21.60;35.60
64951;DHT22;51482;47.014;7.652;2023-04-05T13:59:02;22.20;38.60
64951;DHT22;51482;47.014;7.652;2023-04-05T14:01:27;22.80;35.80
64951;DHT22;51482;47.014;7.652;2023-04-05T14:03:53;22.00;35.30
64951;DHT22;51482;47.014;7.652;2023-04-05T14:06:18;21.00;33.00
64951;DHT22;51482;47.014;7.652;2023-04-05T14:08:44;20.90;34.10
64951;DHT22;51482;47.014;7.652;2023-04-05T14:11:09;20.90;35.90
64951;DHT22;51482;47.014;7.652;2023-04-05T14:13:35;21.20;37.10
64951;DHT22;51482;47.014;7.652;2023-04-05T14:16:00;22.00;37.30
64951;DHT22;51482;47.014;7.652;2023-04-05T14:18:26;21.60;35.10
64951;DHT22;51482;47.014;7.652;2023-04-05T14:20:52;22.20;38.10
64951;DHT22;51482;47.014;7.652;2023-04-05T14:23:17;21.90;35.00
64951;DHT22;51482;47.014;7.652;2023-04-05T14:25:43;21.60;34.50
64951;DHT22;51482;47.014;7.652;2023-04-05T14:28:08;21.30;34.70
64951;DHT22;51482;47.014;7.652;2023-04-05T14:30:34;21.00;34.30
64951;DHT22;51482;47.014;7.652;2023-04-05T14:33:00;20.90;34.10
64951;DHT22;51482;47.014;7.652;2023-04-05T14:35:26;21.00;34.10
64951;DHT22;51482;47.014;7.652;2023-04-05T14:37:51;21.20;36.30
64951;DHT22;51482;47.014;7.652;2023-04-05T14:40:17;21.70;38.20
64951;DHT22;51482;47.014;7.652;2023-04-05T14:42:43;21.30;34.60
64951;DHT22;51482;47.014;7.652;2023-04-05T14:45:09;21.00;32.70
64951;DHT22;51482;47.014;7.652;2023-04-05T14:47:35;21.00;37.60
64951;DHT22;51482;47.014;7.652;2023-04-05T14:50:04;20.60;34.80
64951;DHT22;51482;47.014;7.652;2023-04-05T14:52:32;21.00;33.60
64951;DHT22;51482;47.014;7.652;2023-04-05T14:54:57;20.40;31.70
64951;DHT22;51482;47.014;7.652;2023-04-05T14:57:23;20.70;33.70
64951;DHT22;51482;47.014;7.652;2023-04-05T14:59:48;20.20;33.80
64951;DHT22;51482;47.014;7.652;2023-04-05T15:02:14;20.00;34.10
64951;DHT22;51482;47.014;7.652;2023-04-05T15:04:40;19.70;34.00
64951;DHT22;51482;47.014;7.652;2023-04-05T15:07:05;19.50;34.20
64951;DHT22;51482;47.014;7.652;2023-04-05T15:09:31;19.50;34.10
64951;DHT22;51482;47.014;7.652;2023-04-05T15:11:57;19.70;34.50
64951;DHT22;51482;47.014;7.652;2023-04-05T15:14:23;19.00;33.80
64951;DHT22;51482;47.014;7.652;2023-04-05T15:16:48;19.30;35.60
64951;DHT22;51482;47.014;7.652;2023-04-05T15:19:14;19.80;34.30
64951;DHT22;51482;47.014;7.652;2023-04-05T15:21:40;19.10;32.50
64951;DHT22;51482;47.014;7.652;2023-04-05T15:24:08;18.80;33.60
64951;DHT22;51482;47.014;7.652;2023-04-05T15:26:33;18.70;34.40
64951;DHT22;51482;47.014;7.652;2023-04-05T15:28:59;19.00;35.30
64951;DHT22;51482;47.014;7.652;2023-04-05T15:31:25;19.20;35.10
64951;DHT22;51482;47.014;7.652;2023-04-05T15:33:50;19.40;33.70
64951;DHT22;51482;47.014;7.652;2023-04-05T15:36:16;19.20;32.30
64951;DHT22;51482;47.014;7.652;2023-04-05T15:38:41;19.00;31.90
64951;DHT22;51482;47.014;7.652;2023-04-05T15:41:07;18.60;31.90
64951;DHT22;51482;47.014;7.652;2023-04-05T15:43:33;18.50;31.10
64951;DHT22;51482;47.014;7.652;2023-04-05T15:45:58;17.90;31.00
64951;DHT22;51482;47.014;7.652;2023-04-05T15:48:24;18.70;34.20
64951;DHT22;51482;47.014;7.652;2023-04-05T15:50:49;18.80;33.10
64951;DHT22;51482;47.014;7.652;2023-04-05T15:53:15;18.80;33.20
64951;DHT22;51482;47.014;7.652;2023-04-05T15:55:41;19.30;31.30
64951;DHT22;51482;47.014;7.652;2023-04-05T15:58:07;19.40;32.00
64951;DHT22;51482;47.014;7.652;2023-04-05T16:00:32;19.30;30.50
64951;DHT22;51482;47.014;7.652;2023-04-05T16:02:58;19.30;32.70
64951;DHT22;51482;47.014;7.652;2023-04-05T16:05:24;19.60;33.20
64951;DHT22;51482;47.014;7.652;2023-04-05T16:07:50;19.60;32.30
64951;DHT22;51482;47.014;7.652;2023-04-05T16:10:15;18.80;31.30
64951;DHT22;51482;47.014;7.652;2023-04-05T16:12:41;18.70;32.90